sensor_id;sensor_type;location;lat;lon;timestamp;temperature;humidity
3268;DHT22;1646;52.450;13.326;2022-10-16T00:01:27;17.00;99.90
3268;DHT22;1646;52.450;13.326;2022-10-16T00:06:28;17.00;99.90
3268;DHT22;1646;52.450;13.326;2022-10-16T00:11:28;17.00;99.90
3268;DHT22;1646;52.450;13.326;2022-10-16T00:16:28;17.00;99.90
3268;DHT22;1646;52.450;13.326;2022-10-16T00:21:29;17.00;99.90
3268;DHT22;1646;52.450;13.326;2022-10-16T00:26:28;17.10;99.90
3268;DHT22;1646;52.450;13.326;2022-10-16T00:31:27;17.00;99.90
3268;DHT22;1646;52.450;13.326;2022-10-16T00:36:27;17.00;99.90
3268;DHT22;1646;52.450;13.326;2022-10-16T00:41:27;17.00;99.90
3268;DHT22;1646;52.450;13.326;2022-10-16T00:46:27;17.00;99.90
3268;DHT22;1646;52.450;13.326;2022-10-16T00:51:31;17.00;99.90
3268;DHT22;1646;52.450;13.326;2022-10-16T00:56:30;17.10;99.90
3268;DHT22;1646;52.450;13.326;2022-10-16T01:01:29;17.00;99.90
3268;DHT22;1646;52.450;13.326;2022-10-16T01:06:36;17.00;99.90
3268;DHT22;1646;52.450;13.326;2022-10-16T01:11:42;17.00;99.90
3268;DHT22;1646;52.450;13.326;2022-10-16T01:16:46;17.00;99.90
3268;DHT22;1646;52.450;13.326;2022-10-16T01:21:50;16.90;99.90
3268;DHT22;1646;52.450;13.326;2022-10-16T01:27:15;16.90;99.90
3268;DHT22;1646;52.450;13.326;2022-10-16T01:32:17;16.80;99.90
3268;DHT22;1646;52.450;13.326;2022-10-16T01:37:21;16.90;99.90
3268;DHT22;1646;52.450;13.326;2022-10-16T01:42:25;16.90;99.90
3268;DHT22;1646;52.450;13.326;2022-10-16T01:47:26;16.80;99.90
3268;DHT22;1646;52.450;13.326;2022-10-16T01:52:26;16.80;99.90
3268;DHT22;1646;52.450;13.326;2022-10-16T01:57:29;16.70;99.90
3268;DHT22;1646;52.450;13.326;2022-10-16T02:02:30;16.70;99.90
3268;DHT22;1646;52.450;13.326;2022-10-16T02:07:29;16.80;99.90
3268;DHT22;1646;52.450;13.326;2022-10-16T02:12:31;16.70;99.90
3268;DHT22;1646;52.450;13.326;2022-10-16T02:17:30;16.70;99.90
3268;DHT22;1646;52.450;13.326;2022-10-16T02:22:32;16.70;99.90
3268;DHT22;1646;52.450;13.326;2022-10-16T02:27:35;16.70;99.90
3268;DHT22;1646;52.450;13.326;2022-10-16T02:32:39;16.70;99.90
3268;DHT22;1646;52.450;13.326;2022-10-16T02:37:38;16.70;99.90
3268;DHT22;1646;52.450;13.326;2022-10-16T02:42:39;16.70;99.90
3268;DHT22;1646;52.450;13.326;2022-10-16T02:47:38;16.70;99.90
3268;DHT22;1646;52.450;13.326;2022-10-16T02:52:36;16.70;99.90
3268;DHT22;1646;52.450;13.326;2022-10-16T02:57:34;16.70;99.90
3268;DHT22;1646;52.450;13.326;2022-10-16T03:02:35;16.70;99.90
3268;DHT22;1646;52.450;13.326;2022-10-16T03:07:33;16.70;99.90
3268;DHT22;1646;52.450;13.326;2022-10-16T03:12:31;16.70;99.90
3268;DHT22;1646;52.450;13.326;2022-10-16T03:17:29;16.70;99.90
3268;DHT22;1646;52.450;13.326;2022-10-16T03:22:28;16.70;99.90
3268;DHT22;1646;52.450;13.326;2022-10-16T03:27:26;16.70;99.90
3268;DHT22;1646;52.450;13.326;2022-10-16T03:32:24;16.70;99.90
3268;DHT22;1646;52.450;13.326;2022-10-16T03:37:23;16.70;99.90
3268;DHT22;1646;52.450;13.326;2022-10-16T03:42:23;16.70;99.90
3268;DHT22;1646;52.450;13.326;2022-10-16T03:47:21;16.70;99.90
3268;DHT22;1646;52.450;13.326;2022-10-16T03:52:20;16.60;99.90
3268;DHT22;1646;52.450;13.326;2022-10-16T03:57:18;16.60;99.90
3268;DHT22;1646;52.450;13.326;2022-10-16T04:02:18;16.60;99.90
3268;DHT22;1646;52.450;13.326;2022-10-16T04:07:16;16.60;99.90
3268;DHT22;1646;52.450;13.326;2022-10-16T04:12:14;16.50;99.90
3268;DHT22;1646;52.450;13.326;2022-10-16T04:17:12;16.50;99.90
3268;DHT22;1646;52.450;13.326;2022-10-16T04:22:11;16.50;99.90
3268;DHT22;1646;52.450;13.326;2022-10-16T04:27:09;16.50;99.90
3268;DHT22;1646;52.450;13.326;2022-10-16T04:32:08;16.50;99.90
3268;DHT22;1646;52.450;13.326;2022-10-16T04:37:06;16.50;99.90
3268;DHT22;1646;52.450;13.326;2022-10-16T04:42:05;16.50;99.90
3268;DHT22;1646;52.450;13.326;2022-10-16T04:47:04;16.50;99.90
3268;DHT22;1646;52.450;13.326;2022-10-16T04:52:03;16.50;99.90
3268;DHT22;1646;52.450;13.326;2022-10-16T04:57:01;16.50;99.90
3268;DHT22;1646;52.450;13.326;2022-10-16T05:02:00;16.40;99.90
3268;DHT22;1646;52.450;13.326;2022-10-16T05:06:58;16.30;99.90
3268;DHT22;1646;52.450;13.326;2022-10-16T05:11:56;16.30;99.90
3268;DHT22;1646;52.450;13.326;2022-10-16T05:16:54;16.20;99.90
3268;DHT22;1646;52.450;13.326;2022-10-16T05:21:53;16.00;99.90
3268;DHT22;1646;52.450;13.326;2022-10-16T05:26:51;16.20;99.90
3268;DHT22;1646;52.450;13.326;2022-10-16T05:31:50;16.00;99.90
3268;DHT22;1646;52.450;13.326;2022-10-16T05:36:49;15.90;99.90
3268;DHT22;1646;52.450;13.326;2022-10-16T05:41:49;15.80;99.90
3268;DHT22;1646;52.450;13.326;2022-10-16T05:46:47;15.80;99.90
3268;DHT22;1646;52.450;13.326;2022-10-16T05:51:45;15.80;99.90
3268;DHT22;1646;52.450;13.326;2022-10-16T05:56:43;15.90;99.90
3268;DHT22;1646;52.450;13.326;2022-10-16T06:01:42;15.90;99.90
3268;DHT22;1646;52.450;13.326;2022-10-16T06:06:40;16.00;99.90
3268;DHT22;1646;52.450;13.326;2022-10-16T06:11:38;16.00;99.90
3268;DHT22;1646;52.450;13.326;2022-10-16T06:16:37;16.00;99.90
3268;DHT22;1646;52.450;13.326;2022-10-16T06:21:36;15.90;99.90
3268;DHT22;1646;52.450;13.326;2022-10-16T06:26:34;15.90;99.90
3268;DHT22;1646;52.450;13.326;2022-10-16T06:31:32;16.00;99.90
3268;DHT22;1646;52.450;13.326;2022-10-16T06:36:30;16.00;99.90
3268;DHT22;1646;52.450;13.326;2022-10-16T06:41:29;16.10;99.90
3268;DHT22;1646;52.450;13.326;2022-10-16T06:46:33;16.10;99.90
3268;DHT22;1646;52.450;13.326;2022-10-16T06:51:32;16.20;99.90
3268;DHT22;1646;52.450;13.326;2022-10-16T06:56:37;16.30;99.90
3268;DHT22;1646;52.450;13.326;2022-10-16T07:01:35;16.30;99.90
3268;DHT22;1646;52.450;13.326;2022-10-16T07:06:34;16.30;99.90
3268;DHT22;1646;52.450;13.326;2022-10-16T07:11:32;16.40;99.90
3268;DHT22;1646;52.450;13.326;2022-10-16T07:16:32;16.60;99.90
3268;DHT22;1646;52.450;13.326;2022-10-16T07:21:33;16.90;99.90
3268;DHT22;1646;52.450;13.326;2022-10-16T07:26:34;17.10;99.90
3268;DHT22;1646;52.450;13.326;2022-10-16T07:31:34;17.30;99.90
3268;DHT22;1646;52.450;13.326;2022-10-16T07:36:32;17.50;99.90
3268;DHT22;1646;52.450;13.326;2022-10-16T07:41:30;17.60;99.90
3268;DHT22;1646;52.450;13.326;2022-10-16T07:46:29;17.60;99.90
3268;DHT22;1646;52.450;13.326;2022-10-16T07:51:29;17.60;99.90
3268;DHT22;1646;52.450;13.326;2022-10-16T07:56:27;17.60;99.90
3268;DHT22;1646;52.450;13.326;2022-10-16T08:01:25;17.60;99.90
3268;DHT22;1646;52.450;13.326;2022-10-16T08:06:23;17.60;99.90
3268;DHT22;1646;52.450;13.326;2022-10-16T08:11:25;17.80;99.90
3268;DHT22;1646;52.450;13.326;2022-10-16T08:16:23;17.80;99.90
3268;DHT22;1646;52.450;13.326;2022-10-16T08:21:22;17.90;99.90
3268;DHT22;1646;52.450;13.326;2022-10-16T08:26:20;18.00;99.90
3268;DHT22;1646;52.450;13.326;2022-10-16T08:31:20;18.10;99.90
3268;DHT22;1646;52.450;13.326;2022-10-16T08:36:18;18.30;99.90
3268;DHT22;1646;52.450;13.326;2022-10-16T08:41:49;18.50;99.90
3268;DHT22;1646;52.450;13.326;2022-10-16T08:47:01;18.60;99.90
3268;DHT22;1646;52.450;13.326;2022-10-16T08:52:00;18.60;99.90
3268;DHT22;1646;52.450;13.326;2022-10-16T08:57:07;18.40;99.90
3268;DHT22;1646;52.450;13.326;2022-10-16T09:02:22;18.30;99.90
3268;DHT22;1646;52.450;13.326;2022-10-16T09:07:26;18.30;99.90
3268;DHT22;1646;52.450;13.326;2022-10-16T09:12:32;18.80;99.90
3268;DHT22;1646;52.450;13.326;2022-10-16T09:17:44;19.70;99.90
3268;DHT22;1646;52.450;13.326;2022-10-16T09:22:43;19.60;99.90
3268;DHT22;1646;52.450;13.326;2022-10-16T09:27:42;19.50;99.90
3268;DHT22;1646;52.450;13.326;2022-10-16T09:32:44;19.80;99.90
3268;DHT22;1646;52.450;13.326;2022-10-16T09:37:45;20.20;99.90
3268;DHT22;1646;52.450;13.326;2022-10-16T09:42:44;20.30;99.90
3268;DHT22;1646;52.450;13.326;2022-10-16T09:47:44;21.70;99.90
3268;DHT22;1646;52.450;13.326;2022-10-16T09:52:42;24.10;99.90
3268;DHT22;1646;52.450;13.326;2022-10-16T09:57:48;23.30;99.90
3268;DHT22;1646;52.450;13.326;2022-10-16T10:02:48;22.40;99.90
3268;DHT22;1646;52.450;13.326;2022-10-16T10:07:54;23.20;99.90
3268;DHT22;1646;52.450;13.326;2022-10-16T10:12:53;23.10;99.90
3268;DHT22;1646;52.450;13.326;2022-10-16T10:17:54;22.10;99.90
3268;DHT22;1646;52.450;13.326;2022-10-16T10:22:52;21.50;99.90
3268;DHT22;1646;52.450;13.326;2022-10-16T10:28:26;21.30;99.90
3268;DHT22;1646;52.450;13.326;2022-10-16T10:33:37;21.00;99.90
3268;DHT22;1646;52.450;13.326;2022-10-16T10:38:42;21.00;99.90
3268;DHT22;1646;52.450;13.326;2022-10-16T10:43:54;21.10;99.90
3268;DHT22;1646;52.450;13.326;2022-10-16T10:49:14;21.30;99.90
3268;DHT22;1646;52.450;13.326;2022-10-16T10:54:20;22.60;99.90
3268;DHT22;1646;52.450;13.326;2022-10-16T10:59:53;24.00;99.90
3268;DHT22;1646;52.450;13.326;2022-10-16T11:10:28;23.30;99.90
3268;DHT22;1646;52.450;13.326;2022-10-16T11:15:30;23.90;99.90
3268;DHT22;1646;52.450;13.326;2022-10-16T11:20:32;25.60;99.90
3268;DHT22;1646;52.450;13.326;2022-10-16T11:25:32;26.20;99.90
3268;DHT22;1646;52.450;13.326;2022-10-16T11:30:33;25.20;99.90
3268;DHT22;1646;52.450;13.326;2022-10-16T11:35:41;24.00;99.90
3268;DHT22;1646;52.450;13.326;2022-10-16T11:40:43;22.80;99.90
3268;DHT22;1646;52.450;13.326;2022-10-16T11:45:46;22.50;99.90
3268;DHT22;1646;52.450;13.326;2022-10-16T11:50:53;22.40;99.90
3268;DHT22;1646;52.450;13.326;2022-10-16T11:55:51;22.40;99.90
3268;DHT22;1646;52.450;13.326;2022-10-16T12:00:55;22.20;99.90
3268;DHT22;1646;52.450;13.326;2022-10-16T12:06:16;21.80;99.90
3268;DHT22;1646;52.450;13.326;2022-10-16T12:11:32;21.50;99.90
3268;DHT22;1646;52.450;13.326;2022-10-16T12:16:30;21.70;99.90
3268;DHT22;1646;52.450;13.326;2022-10-16T12:21:31;21.70;99.90
3268;DHT22;1646;52.450;13.326;2022-10-16T12:26:32;22.20;99.90
3268;DHT22;1646;52.450;13.326;2022-10-16T12:31:37;22.80;99.90
3268;DHT22;1646;52.450;13.326;2022-10-16T12:37:07;23.20;99.90
3268;DHT22;1646;52.450;13.326;2022-10-16T12:42:20;22.60;99.90
3268;DHT22;1646;52.450;13.326;2022-10-16T12:47:23;22.00;99.90
3268;DHT22;1646;52.450;13.326;2022-10-16T12:52:38;21.80;99.90
3268;DHT22;1646;52.450;13.326;2022-10-16T12:57:44;21.60;99.90
3268;DHT22;1646;52.450;13.326;2022-10-16T13:08:37;21.50;99.90
3268;DHT22;1646;52.450;13.326;2022-10-16T13:14:03;21.60;99.90
3268;DHT22;1646;52.450;13.326;2022-10-16T13:19:14;21.50;99.90
3268;DHT22;1646;52.450;13.326;2022-10-16T13:24:28;21.40;99.90
3268;DHT22;1646;52.450;13.326;2022-10-16T13:29:32;21.20;99.90
3268;DHT22;1646;52.450;13.326;2022-10-16T13:34:30;21.30;99.90
3268;DHT22;1646;52.450;13.326;2022-10-16T13:39:30;21.40;99.90
3268;DHT22;1646;52.450;13.326;2022-10-16T13:44:33;21.50;99.90
3268;DHT22;1646;52.450;13.326;2022-10-16T13:49:33;21.50;99.90
3268;DHT22;1646;52.450;13.326;2022-10-16T13:54:32;21.60;99.90
3268;DHT22;1646;52.450;13.326;2022-10-16T13:59:33;21.30;99.90
3268;DHT22;1646;52.450;13.326;2022-10-16T14:04:32;21.30;99.90
3268;DHT22;1646;52.450;13.326;2022-10-16T14:09:32;21.50;99.90
3268;DHT22;1646;52.450;13.326;2022-10-16T14:14:35;21.80;99.90
3268;DHT22;1646;52.450;13.326;2022-10-16T14:19:37;21.90;99.90
3268;DHT22;1646;52.450;13.326;2022-10-16T14:24:37;22.00;99.90
3268;DHT22;1646;52.450;13.326;2022-10-16T14:29:35;21.90;99.90
3268;DHT22;1646;52.450;13.326;2022-10-16T14:34:35;21.40;99.90
3268;DHT22;1646;52.450;13.326;2022-10-16T14:39:34;21.20;99.90
3268;DHT22;1646;52.450;13.326;2022-10-16T14:44:34;21.20;99.90
3268;DHT22;1646;52.450;13.326;2022-10-16T14:49:33;21.10;99.90
3268;DHT22;1646;52.450;13.326;2022-10-16T14:54:31;21.10;99.90
3268;DHT22;1646;52.450;13.326;2022-10-16T14:59:32;21.20;99.90
3268;DHT22;1646;52.450;13.326;2022-10-16T15:04:32;21.70;99.90
3268;DHT22;1646;52.450;13.326;2022-10-16T15:09:30;22.80;99.90
3268;DHT22;1646;52.450;13.326;2022-10-16T15:14:28;25.60;99.90
3268;DHT22;1646;52.450;13.326;2022-10-16T15:19:26;27.40;99.90
3268;DHT22;1646;52.450;13.326;2022-10-16T15:24:26;27.70;93.80
3268;DHT22;1646;52.450;13.326;2022-10-16T15:29:24;26.50;95.60
3268;DHT22;1646;52.450;13.326;2022-10-16T15:34:22;25.70;95.00
3268;DHT22;1646;52.450;13.326;2022-10-16T15:39:20;24.30;96.50
3268;DHT22;1646;52.450;13.326;2022-10-16T15:44:20;23.30;97.80
3268;DHT22;1646;52.450;13.326;2022-10-16T15:49:19;22.40;99.40
3268;DHT22;1646;52.450;13.326;2022-10-16T15:54:18;21.70;99.90
3268;DHT22;1646;52.450;13.326;2022-10-16T15:59:19;21.20;99.90
3268;DHT22;1646;52.450;13.326;2022-10-16T16:04:17;21.00;99.90
3268;DHT22;1646;52.450;13.326;2022-10-16T16:09:35;20.70;99.90
3268;DHT22;1646;52.450;13.326;2022-10-16T16:14:35;20.50;99.90
3268;DHT22;1646;52.450;13.326;2022-10-16T16:19:33;20.30;99.90
3268;DHT22;1646;52.450;13.326;2022-10-16T16:24:31;20.10;99.90
3268;DHT22;1646;52.450;13.326;2022-10-16T16:29:29;19.90;99.90
3268;DHT22;1646;52.450;13.326;2022-10-16T16:34:29;19.60;99.90
3268;DHT22;1646;52.450;13.326;2022-10-16T16:39:27;19.30;99.90
3268;DHT22;1646;52.450;13.326;2022-10-16T16:44:25;19.10;99.90
3268;DHT22;1646;52.450;13.326;2022-10-16T16:49:24;18.90;99.90
3268;DHT22;1646;52.450;13.326;2022-10-16T16:54:23;18.70;99.90
3268;DHT22;1646;52.450;13.326;2022-10-16T16:59:21;18.50;99.90
3268;DHT22;1646;52.450;13.326;2022-10-16T17:04:19;18.30;99.90
3268;DHT22;1646;52.450;13.326;2022-10-16T17:09:17;18.20;99.90
3268;DHT22;1646;52.450;13.326;2022-10-16T17:14:17;18.00;99.90
3268;DHT22;1646;52.450;13.326;2022-10-16T17:19:18;17.90;99.90
3268;DHT22;1646;52.450;13.326;2022-10-16T17:24:17;17.70;99.90
3268;DHT22;1646;52.450;13.326;2022-10-16T17:29:18;17.60;99.90
3268;DHT22;1646;52.450;13.326;2022-10-16T17:34:16;17.50;99.90
3268;DHT22;1646;52.450;13.326;2022-10-16T17:39:15;17.30;99.90
3268;DHT22;1646;52.450;13.326;2022-10-16T17:44:15;17.20;99.90
3268;DHT22;1646;52.450;13.326;2022-10-16T17:49:18;17.10;99.90
3268;DHT22;1646;52.450;13.326;2022-10-16T17:54:16;17.00;99.90
3268;DHT22;1646;52.450;13.326;2022-10-16T17:59:15;16.90;99.90
3268;DHT22;1646;52.450;13.326;2022-10-16T18:04:16;16.80;99.90
3268;DHT22;1646;52.450;13.326;2022-10-16T18:09:17;16.70;99.90
3268;DHT22;1646;52.450;13.326;2022-10-16T18:14:17;16.50;99.90
3268;DHT22;1646;52.450;13.326;2022-10-16T18:19:15;16.40;99.90
3268;DHT22;1646;52.450;13.326;2022-10-16T18:24:13;16.30;99.90
3268;DHT22;1646;52.450;13.326;2022-10-16T18:29:12;16.30;99.90
3268;DHT22;1646;52.450;13.326;2022-10-16T18:34:10;16.30;99.90
3268;DHT22;1646;52.450;13.326;2022-10-16T18:39:09;16.20;99.90
3268;DHT22;1646;52.450;13.326;2022-10-16T18:44:08;16.10;99.90
3268;DHT22;1646;52.450;13.326;2022-10-16T18:49:08;16.00;99.90
3268;DHT22;1646;52.450;13.326;2022-10-16T18:54:08;16.00;99.90
3268;DHT22;1646;52.450;13.326;2022-10-16T18:59:07;16.00;99.90
3268;DHT22;1646;52.450;13.326;2022-10-16T19:04:08;15.90;99.90
3268;DHT22;1646;52.450;13.326;2022-10-16T19:09:07;15.90;99.90
3268;DHT22;1646;52.450;13.326;2022-10-16T19:14:05;15.80;99.90
3268;DHT22;1646;52.450;13.326;2022-10-16T19:19:05;15.80;99.90
3268;DHT22;1646;52.450;13.326;2022-10-16T19:24:05;15.70;99.90
3268;DHT22;1646;52.450;13.326;2022-10-16T19:29:03;15.70;99.90
3268;DHT22;1646;52.450;13.326;2022-10-16T19:34:03;15.60;99.90
3268;DHT22;1646;52.450;13.326;2022-10-16T19:39:05;15.60;99.90
3268;DHT22;1646;52.450;13.326;2022-10-16T19:44:05;15.60;99.90
3268;DHT22;1646;52.450;13.326;2022-10-16T19:49:06;15.60;99.90
3268;DHT22;1646;52.450;13.326;2022-10-16T19:54:09;15.70;99.90
3268;DHT22;1646;52.450;13.326;2022-10-16T19:59:09;15.60;99.90
3268;DHT22;1646;52.450;13.326;2022-10-16T20:04:08;15.60;99.90
3268;DHT22;1646;52.450;13.326;2022-10-16T20:09:08;15.60;99.90
3268;DHT22;1646;52.450;13.326;2022-10-16T20:14:06;15.60;99.90
3268;DHT22;1646;52.450;13.326;2022-10-16T20:19:04;15.60;99.90
3268;DHT22;1646;52.450;13.326;2022-10-16T20:24:03;15.50;99.90
3268;DHT22;1646;52.450;13.326;2022-10-16T20:29:04;15.50;99.90
3268;DHT22;1646;52.450;13.326;2022-10-16T20:34:04;15.40;99.90
3268;DHT22;1646;52.450;13.326;2022-10-16T20:39:03;15.40;99.90
3268;DHT22;1646;52.450;13.326;2022-10-16T20:44:03;15.40;99.90
3268;DHT22;1646;52.450;13.326;2022-10-16T20:49:02;15.40;99.90
3268;DHT22;1646;52.450;13.326;2022-10-16T20:54:12;15.40;99.90
3268;DHT22;1646;52.450;13.326;2022-10-16T20:59:11;15.40;99.90
3268;DHT22;1646;52.450;13.326;2022-10-16T21:04:09;15.40;99.90
3268;DHT22;1646;52.450;13.326;2022-10-16T21:09:07;15.40;99.90
3268;DHT22;1646;52.450;13.326;2022-10-16T21:14:07;15.40;99.90
3268;DHT22;1646;52.450;13.326;2022-10-16T21:19:07;15.40;99.90
3268;DHT22;1646;52.450;13.326;2022-10-16T21:24:05;15.40;99.90
3268;DHT22;1646;52.450;13.326;2022-10-16T21:29:10;15.40;99.90
3268;DHT22;1646;52.450;13.326;2022-10-16T21:34:10;15.40;99.90
3268;DHT22;1646;52.450;13.326;2022-10-16T21:39:10;15.40;99.90
3268;DHT22;1646;52.450;13.326;2022-10-16T21:44:08;15.30;99.90
3268;DHT22;1646;52.450;13.326;2022-10-16T21:49:11;15.20;99.90
3268;DHT22;1646;52.450;13.326;2022-10-16T21:54:10;15.20;99.90
3268;DHT22;1646;52.450;13.326;2022-10-16T21:59:10;15.20;99.90
3268;DHT22;1646;52.450;13.326;2022-10-16T22:04:10;15.30;99.90
3268;DHT22;1646;52.450;13.326;2022-10-16T22:09:08;15.30;99.90
3268;DHT22;1646;52.450;13.326;2022-10-16T22:14:10;15.30;99.90
3268;DHT22;1646;52.450;13.326;2022-10-16T22:19:11;15.30;99.90
3268;DHT22;1646;52.450;13.326;2022-10-16T22:24:10;15.20;99.90
3268;DHT22;1646;52.450;13.326;2022-10-16T22:29:10;15.10;99.90
3268;DHT22;1646;52.450;13.326;2022-10-16T22:34:12;15.10;99.90
3268;DHT22;1646;52.450;13.326;2022-10-16T22:39:10;15.10;99.90
3268;DHT22;1646;52.450;13.326;2022-10-16T22:44:10;15.10;99.90
3268;DHT22;1646;52.450;13.326;2022-10-16T22:49:08;15.10;99.90
3268;DHT22;1646;52.450;13.326;2022-10-16T22:54:08;15.00;99.90
3268;DHT22;1646;52.450;13.326;2022-10-16T22:59:06;15.00;99.90
3268;DHT22;1646;52.450;13.326;2022-10-16T23:04:04;15.00;99.90
3268;DHT22;1646;52.450;13.326;2022-10-16T23:09:02;15.10;99.90
3268;DHT22;1646;52.450;13.326;2022-10-16T23:14:02;15.10;99.90
3268;DHT22;1646;52.450;13.326;2022-10-16T23:19:00;15.10;99.90
3268;DHT22;1646;52.450;13.326;2022-10-16T23:23:58;15.20;99.90
3268;DHT22;1646;52.450;13.326;2022-10-16T23:28:57;15.20;99.90
3268;DHT22;1646;52.450;13.326;2022-10-16T23:33:57;15.20;99.90
3268;DHT22;1646;52.450;13.326;2022-10-16T23:38:55;15.30;99.90
3268;DHT22;1646;52.450;13.326;2022-10-16T23:43:53;15.30;99.90
3268;DHT22;1646;52.450;13.326;2022-10-16T23:48:51;15.30;99.90
3268;DHT22;1646;52.450;13.326;2022-10-16T23:53:50;15.30;99.90
3268;DHT22;1646;52.450;13.326;2022-10-16T23:58:49;15.40;99.90
